createdAt,value
2019-02-18T00:01:50.221Z,20.20
2019-02-18T00:04:21.056Z,20.00
2019-02-18T00:06:51.701Z,19.17
2019-02-18T00:09:22.820Z,19.57
2019-02-18T00:11:53.809Z,21.77
2019-02-18T00:14:24.983Z,20.47
2019-02-18T00:17:19.655Z,20.93
2019-02-18T00:19:50.339Z,20.50
2019-02-18T00:22:21.979Z,19.80
2019-02-18T00:24:53.763Z,24.17
2019-02-18T00:27:24.755Z,23.07
2019-02-18T00:29:55.694Z,19.00
2019-02-18T00:32:26.641Z,22.13
2019-02-18T00:34:57.682Z,20.30
2019-02-18T00:37:28.610Z,20.63
2019-02-18T00:39:59.628Z,21.00
2019-02-18T00:42:30.678Z,18.80
2019-02-18T00:45:01.853Z,22.10
2019-02-18T00:47:33.009Z,21.87
2019-02-18T00:50:03.918Z,20.70
2019-02-18T00:52:34.916Z,20.60
2019-02-18T00:55:06.119Z,19.87
2019-02-18T00:57:37.130Z,20.83
2019-02-18T01:00:08.546Z,19.50
2019-02-18T01:02:39.752Z,22.07
2019-02-18T01:05:10.842Z,21.40
2019-02-18T01:07:45.474Z,21.13
2019-02-18T01:10:16.867Z,20.60
2019-02-18T01:12:47.640Z,22.97
2019-02-18T01:15:18.724Z,21.17
2019-02-18T01:17:49.433Z,23.03
2019-02-18T01:20:20.503Z,23.70
2019-02-18T01:22:51.175Z,21.00
2019-02-18T01:25:22.290Z,23.43
2019-02-18T01:27:56.867Z,22.53
2019-02-18T01:30:27.957Z,21.00
2019-02-18T01:32:58.968Z,21.77
2019-02-18T01:35:30.019Z,20.73
2019-02-18T01:38:01.516Z,20.43
2019-02-18T01:40:32.659Z,21.47
2019-02-18T01:43:05.091Z,21.87
2019-02-18T01:45:36.173Z,19.90
2019-02-18T01:48:07.311Z,19.47
2019-02-18T01:50:38.460Z,20.33
2019-02-18T01:53:09.504Z,18.63
2019-02-18T01:55:40.609Z,18.20
2019-02-18T01:58:11.735Z,19.20
2019-02-18T02:00:42.833Z,17.90
2019-02-18T02:03:13.939Z,18.20
2019-02-18T02:05:44.987Z,16.53
2019-02-18T02:11:45.056Z,16.47
2019-02-18T02:14:16.160Z,16.17
2019-02-18T02:16:48.228Z,16.00
2019-02-18T02:19:19.317Z,15.57
2019-02-18T02:21:50.046Z,16.57
2019-02-18T02:24:21.154Z,16.30
2019-02-18T02:26:51.804Z,17.10
2019-02-18T02:29:23.841Z,16.30
2019-02-18T02:31:54.476Z,16.67
2019-02-18T02:34:25.409Z,16.30
2019-02-18T02:36:56.541Z,14.50
2019-02-18T02:39:27.597Z,14.17
2019-02-18T02:41:58.778Z,15.40
2019-02-18T02:44:30.172Z,15.77
2019-02-18T02:47:01.232Z,15.33
2019-02-18T02:49:32.233Z,15.67
2019-02-18T02:52:03.341Z,14.60
2019-02-18T02:54:34.436Z,14.50
2019-02-18T02:57:06.614Z,14.73
2019-02-18T02:59:37.619Z,13.70
2019-02-18T03:02:08.675Z,15.30
2019-02-18T03:04:39.628Z,15.67
2019-02-18T03:07:10.601Z,15.93
2019-02-18T03:09:41.591Z,15.90
2019-02-18T03:12:12.953Z,16.63
2019-02-18T03:14:44.171Z,18.33
2019-02-18T03:17:15.160Z,18.00
2019-02-18T03:19:45.973Z,17.40
2019-02-18T03:22:17.052Z,18.30
2019-02-18T03:25:14.229Z,18.67
2019-02-18T03:27:45.344Z,18.60
2019-02-18T03:30:49.907Z,21.17
2019-02-18T03:33:24.313Z,20.37
2019-02-18T03:35:55.351Z,20.97
2019-02-18T03:38:31.521Z,19.63
2019-02-18T03:41:03.210Z,19.10
2019-02-18T03:43:31.731Z,17.47
2019-02-18T03:46:02.645Z,19.27
2019-02-18T03:52:09.947Z,17.70
2019-02-18T03:54:41.120Z,19.07
2019-02-18T03:57:12.147Z,17.87
2019-02-18T04:06:12.270Z,16.63
2019-02-18T04:08:43.475Z,15.30
2019-02-18T04:11:14.459Z,16.23
2019-02-18T04:13:45.521Z,17.13
2019-02-18T04:16:17.618Z,17.57
2019-02-18T04:18:48.399Z,16.00
2019-02-18T04:21:19.396Z,16.13
2019-02-18T04:23:50.380Z,15.77
2019-02-18T04:26:21.493Z,16.53
2019-02-18T04:28:52.462Z,17.40
2019-02-18T04:31:23.430Z,16.20
2019-02-18T04:33:54.062Z,16.57
2019-02-18T04:36:24.675Z,15.13
2019-02-18T04:38:55.337Z,15.20
2019-02-18T04:41:26.395Z,14.40
2019-02-18T04:43:57.388Z,14.80
2019-02-18T04:46:28.415Z,16.10
2019-02-18T04:48:59.821Z,14.50
2019-02-18T04:51:30.907Z,14.50
2019-02-18T04:54:01.965Z,16.30
2019-02-18T04:56:33.064Z,15.77
2019-02-18T04:59:04.181Z,15.63
2019-02-18T05:01:35.180Z,16.87
2019-02-18T05:04:06.211Z,13.13
2019-02-18T05:06:40.141Z,13.97
2019-02-18T05:09:11.063Z,12.50
2019-02-18T05:11:42.216Z,15.50
2019-02-18T05:14:13.125Z,13.57
2019-02-18T05:16:44.117Z,14.87
2019-02-18T05:19:15.095Z,13.30
2019-02-18T05:21:46.107Z,14.77
2019-02-18T05:24:17.082Z,14.60
2019-02-18T05:26:49.426Z,14.47
2019-02-18T05:29:20.861Z,12.80
2019-02-18T05:31:52.216Z,13.20
2019-02-18T05:34:23.384Z,14.90
2019-02-18T05:36:54.609Z,27.67
2019-02-18T05:39:25.688Z,14.10
2019-02-18T05:41:56.564Z,12.53
2019-02-18T05:44:28.620Z,12.13
2019-02-18T05:46:59.516Z,12.90
2019-02-18T05:49:30.484Z,12.67
2019-02-18T05:52:01.441Z,13.20
2019-02-18T05:54:32.499Z,17.13
2019-02-18T05:57:03.605Z,13.93
2019-02-18T05:59:34.639Z,16.03
2019-02-18T06:02:05.693Z,13.97
2019-02-18T06:04:36.779Z,15.00
2019-02-18T06:07:07.809Z,11.43
2019-02-18T06:09:39.809Z,13.27
2019-02-18T06:12:10.809Z,13.00
2019-02-18T06:14:41.884Z,13.80
2019-02-18T06:17:13.311Z,12.50
2019-02-18T06:19:44.485Z,14.93
2019-02-18T06:22:15.374Z,14.10
2019-02-18T06:24:46.707Z,14.30
2019-02-18T06:27:18.439Z,14.00
2019-02-18T06:29:49.328Z,15.43
2019-02-18T06:32:20.590Z,14.67
2019-02-18T06:34:51.215Z,15.40
2019-02-18T06:37:22.338Z,15.23
2019-02-18T06:39:53.599Z,16.70
2019-02-18T06:42:24.853Z,17.30
2019-02-18T06:45:35.316Z,15.37
2019-02-18T06:48:28.776Z,15.13
2019-02-18T06:51:00.255Z,19.20
2019-02-18T06:53:31.441Z,16.00
2019-02-18T06:56:03.461Z,16.07
2019-02-18T07:02:25.560Z,15.40
2019-02-18T07:05:23.224Z,15.80
2019-02-18T07:08:15.916Z,14.50
2019-02-18T07:10:59.828Z,15.10
2019-02-18T07:13:30.984Z,14.40
2019-02-18T07:16:01.902Z,16.37
2019-02-18T07:18:32.993Z,14.23
2019-02-18T07:21:03.945Z,14.73
2019-02-18T07:23:35.016Z,14.70
2019-02-18T07:26:07.066Z,14.73
2019-02-18T07:28:38.274Z,15.50
2019-02-18T07:31:09.413Z,12.43
2019-02-18T07:33:40.455Z,14.30
2019-02-18T07:36:11.577Z,14.30
2019-02-18T07:38:42.841Z,14.17
2019-02-18T07:41:16.828Z,16.03
2019-02-18T07:43:48.169Z,16.93
2019-02-18T07:46:19.224Z,12.93
2019-02-18T07:48:50.074Z,15.07
2019-02-18T07:51:21.556Z,13.80
2019-02-18T07:53:52.655Z,12.17
2019-02-18T07:56:23.983Z,11.73
2019-02-18T07:58:54.643Z,12.20
2019-02-18T08:01:25.842Z,12.80
2019-02-18T08:03:57.059Z,11.70
2019-02-18T08:06:28.276Z,12.70
2019-02-18T08:09:06.232Z,13.20
2019-02-18T08:11:38.915Z,11.73
2019-02-18T08:14:10.070Z,12.77
2019-02-18T08:16:41.091Z,12.97
2019-02-18T08:19:12.300Z,12.17
2019-02-18T08:21:43.299Z,12.17
2019-02-18T08:24:15.393Z,10.90
2019-02-18T08:26:46.525Z,13.13
2019-02-18T08:29:17.688Z,11.63
2019-02-18T08:31:49.389Z,12.73
2019-02-18T08:34:20.636Z,12.20
2019-02-18T08:36:51.469Z,11.63
2019-02-18T08:39:22.510Z,11.97
2019-02-18T08:41:53.239Z,10.40
2019-02-18T08:44:24.594Z,13.10
2019-02-18T08:46:55.870Z,10.10
2019-02-18T08:49:26.951Z,11.17
2019-02-18T08:51:57.643Z,11.70
2019-02-18T08:57:35.120Z,10.90
2019-02-18T09:00:18.832Z,9.80
2019-02-18T09:02:50.117Z,9.23
2019-02-18T09:05:21.353Z,9.40
2019-02-18T09:07:52.636Z,9.57
2019-02-18T09:10:32.992Z,8.43
2019-02-18T09:12:56.429Z,9.00
2019-02-18T09:15:27.625Z,8.80
2019-02-18T09:17:58.810Z,7.13
2019-02-18T09:20:29.865Z,6.63
2019-02-18T09:23:07.856Z,6.90
2019-02-18T09:25:45.015Z,8.57
2019-02-18T09:28:16.146Z,8.30
2019-02-18T09:30:50.683Z,9.00
2019-02-18T09:33:21.862Z,6.07
2019-02-18T09:35:52.843Z,7.33
2019-02-18T09:38:25.212Z,10.10
2019-02-18T09:44:27.259Z,9.27
2019-02-18T09:46:57.924Z,9.27
2019-02-18T09:49:29.432Z,8.10
2019-02-18T09:52:00.614Z,4.83
2019-02-18T09:54:32.370Z,6.50
2019-02-18T09:57:03.770Z,6.70
2019-02-18T09:59:34.967Z,5.33
2019-02-18T10:02:06.128Z,3.77
2019-02-18T10:04:37.421Z,6.33
2019-02-18T10:07:08.548Z,5.03
2019-02-18T10:09:39.602Z,6.63
2019-02-18T10:12:18.091Z,5.13
2019-02-18T10:14:43.474Z,5.07
2019-02-18T10:17:14.736Z,6.00
2019-02-18T10:19:45.913Z,6.63
2019-02-18T10:22:17.191Z,7.63
2019-02-18T10:24:50.984Z,7.03
2019-02-18T10:27:20.781Z,6.60
2019-02-18T10:29:51.476Z,7.97
2019-02-18T10:32:25.947Z,5.93
2019-02-18T10:35:04.297Z,5.00
2019-02-18T10:37:36.009Z,6.13
2019-02-18T10:40:07.950Z,6.07
2019-02-18T10:42:39.164Z,4.40
2019-02-18T10:45:13.643Z,5.13
2019-02-18T10:47:44.737Z,3.70
2019-02-18T10:50:15.644Z,5.10
2019-02-18T10:53:10.145Z,4.77
2019-02-18T10:55:41.919Z,5.13
2019-02-18T10:58:13.434Z,5.57
2019-02-18T11:00:44.779Z,5.80
2019-02-18T11:03:15.830Z,5.17
2019-02-18T11:05:47.103Z,5.90
2019-02-18T11:08:18.429Z,5.10
2019-02-18T11:10:50.382Z,8.23
2019-02-18T11:13:21.849Z,5.03
2019-02-18T11:15:53.037Z,4.90
2019-02-18T11:22:10.953Z,5.17
2019-02-18T11:24:42.055Z,5.40
2019-02-18T11:27:13.088Z,7.50
2019-02-18T11:29:44.558Z,6.03
2019-02-18T11:32:15.716Z,6.00
2019-02-18T11:34:47.073Z,6.27
2019-02-18T11:37:19.949Z,6.90
2019-02-18T11:39:51.559Z,6.10
2019-02-18T11:42:22.683Z,6.27
2019-02-18T11:44:53.586Z,7.97
2019-02-18T11:47:25.123Z,6.10
2019-02-18T11:49:55.830Z,6.93
2019-02-18T11:52:28.604Z,5.80
2019-02-18T11:54:59.777Z,6.53
2019-02-18T11:57:31.680Z,5.57
2019-02-18T12:00:03.256Z,5.30
2019-02-18T12:02:34.407Z,6.40
2019-02-18T12:05:05.837Z,4.67
2019-02-18T12:07:36.966Z,5.63
2019-02-18T12:10:08.900Z,5.30
2019-02-18T12:12:40.374Z,4.50
2019-02-18T12:15:11.763Z,4.87
2019-02-18T12:17:42.896Z,5.00
2019-02-18T12:20:14.320Z,4.20
2019-02-18T12:22:45.204Z,3.83
2019-02-18T12:25:16.657Z,4.53
2019-02-18T12:27:47.654Z,4.37
2019-02-18T12:30:19.031Z,4.00
2019-02-18T12:32:50.377Z,4.50
2019-02-18T12:35:30.603Z,4.13
2019-02-18T12:37:55.583Z,3.80
2019-02-18T12:40:26.474Z,3.40
2019-02-18T12:42:57.116Z,3.80
2019-02-18T12:45:28.241Z,4.07
2019-02-18T12:47:59.236Z,4.60
2019-02-18T12:50:30.615Z,4.63
2019-02-18T12:53:02.004Z,3.90
2019-02-18T12:55:33.525Z,3.87
2019-02-18T12:58:05.141Z,4.17
2019-02-18T13:00:37.162Z,5.90
2019-02-18T13:03:08.297Z,4.00
2019-02-18T13:05:39.418Z,4.77
2019-02-18T13:08:10.699Z,4.00
2019-02-18T13:10:42.955Z,3.97
2019-02-18T13:13:14.005Z,6.87
2019-02-18T13:15:45.248Z,4.33
2019-02-18T13:18:17.000Z,4.63
2019-02-18T13:20:48.136Z,5.27
2019-02-18T13:23:19.297Z,4.97
2019-02-18T13:25:50.636Z,4.50
2019-02-18T13:28:30.004Z,4.50
2019-02-18T13:31:02.134Z,4.40
2019-02-18T13:33:34.096Z,4.50
2019-02-18T13:36:11.075Z,4.67
2019-02-18T13:38:42.113Z,4.80
2019-02-18T13:41:13.202Z,4.33
2019-02-18T13:43:44.355Z,3.80
2019-02-18T13:46:16.058Z,4.57
2019-02-18T13:48:47.406Z,4.03
2019-02-18T13:51:24.080Z,4.00
2019-02-18T13:53:51.321Z,4.00
2019-02-18T13:56:22.626Z,4.47
2019-02-18T13:58:54.288Z,4.07
2019-02-18T14:01:25.603Z,3.70
2019-02-18T14:03:57.155Z,3.77
2019-02-18T14:13:07.136Z,3.90
2019-02-18T14:15:38.294Z,3.80
2019-02-18T14:18:09.352Z,4.03
2019-02-18T14:20:41.262Z,5.10
2019-02-18T14:23:12.703Z,4.07
2019-02-18T14:25:44.070Z,4.50
2019-02-18T14:28:15.284Z,4.47
2019-02-18T14:30:46.363Z,4.10
2019-02-18T14:33:18.139Z,4.27
2019-02-18T14:35:49.560Z,4.53
2019-02-18T14:38:21.651Z,4.20
2019-02-18T14:40:52.701Z,4.10
2019-02-18T14:43:23.813Z,4.57
2019-02-18T14:45:54.769Z,4.47
2019-02-18T14:48:25.840Z,4.40
2019-02-18T14:50:57.117Z,5.07
2019-02-18T14:53:28.305Z,4.10
2019-02-18T14:55:59.956Z,4.67
2019-02-18T14:58:31.492Z,4.10
2019-02-18T15:01:02.632Z,5.30
2019-02-18T15:03:33.877Z,4.57
2019-02-18T15:06:05.119Z,4.53
2019-02-18T15:08:45.689Z,4.07
2019-02-18T15:11:16.773Z,4.60
2019-02-18T15:13:54.577Z,3.97
2019-02-18T15:16:25.681Z,6.13
2019-02-18T15:18:57.380Z,4.90
2019-02-18T15:22:01.523Z,4.23
2019-02-18T15:24:32.541Z,5.47
2019-02-18T15:27:03.922Z,4.20
2019-02-18T15:29:35.337Z,4.50
2019-02-18T15:32:06.821Z,4.70
2019-02-18T15:34:44.180Z,5.70
2019-02-18T15:37:15.356Z,4.70
2019-02-18T15:39:46.368Z,4.43
2019-02-18T15:42:17.870Z,10.83
2019-02-18T15:44:49.166Z,4.77
2019-02-18T15:47:20.443Z,5.40
2019-02-18T15:49:51.544Z,5.40
2019-02-18T15:52:22.376Z,4.70
2019-02-18T15:54:53.363Z,5.23
2019-02-18T15:57:24.890Z,5.30
2019-02-18T15:59:56.684Z,5.03
2019-02-18T16:02:27.782Z,5.30
2019-02-18T16:08:26.035Z,4.50
2019-02-18T16:10:57.065Z,5.10
2019-02-18T16:13:28.107Z,5.00
2019-02-18T16:16:00.438Z,5.23
2019-02-18T16:18:31.707Z,7.00
2019-02-18T16:21:02.769Z,5.37
2019-02-18T16:23:34.063Z,6.37
2019-02-18T16:26:05.127Z,6.40
2019-02-18T16:28:36.199Z,5.13
2019-02-18T16:31:07.441Z,6.20
2019-02-18T16:33:38.770Z,5.70
2019-02-18T16:36:10.197Z,5.77
2019-02-18T16:38:41.267Z,5.43
2019-02-18T16:41:12.316Z,5.97
2019-02-18T16:43:43.318Z,5.37
2019-02-18T16:46:14.469Z,5.10
2019-02-18T16:48:45.493Z,4.83
2019-02-18T16:51:16.902Z,4.90
2019-02-18T16:53:47.663Z,5.40
2019-02-18T16:56:18.805Z,5.63
2019-02-18T16:58:49.835Z,4.47
2019-02-18T17:01:21.374Z,5.23
2019-02-18T17:03:52.586Z,4.90
2019-02-18T17:06:23.639Z,5.73
2019-02-18T17:08:54.377Z,5.43
2019-02-18T17:11:25.477Z,6.30
2019-02-18T17:13:56.817Z,5.00
2019-02-18T17:16:28.217Z,4.83
2019-02-18T17:19:00.288Z,5.60
2019-02-18T17:21:31.375Z,5.80
2019-02-18T17:24:02.745Z,4.77
2019-02-18T17:26:33.917Z,5.40
2019-02-18T17:29:04.924Z,6.30
2019-02-18T17:31:35.985Z,5.33
2019-02-18T17:34:07.083Z,5.37
2019-02-18T17:36:38.189Z,5.10
2019-02-18T17:39:11.099Z,5.07
2019-02-18T17:41:42.515Z,4.60
2019-02-18T17:44:19.961Z,5.50
2019-02-18T17:46:47.688Z,5.13
2019-02-18T17:49:18.709Z,5.50
2019-02-18T17:51:50.204Z,5.37
2019-02-18T17:54:21.282Z,4.77
2019-02-18T17:56:52.347Z,4.80
2019-02-18T17:59:23.469Z,5.40
2019-02-18T18:01:54.542Z,5.20
2019-02-18T18:04:25.596Z,4.90
2019-02-18T18:06:56.936Z,6.57
2019-02-18T18:09:28.046Z,7.13
2019-02-18T18:11:59.881Z,6.03
2019-02-18T18:14:31.224Z,4.33
2019-02-18T18:17:02.346Z,5.90
2019-02-18T18:19:34.062Z,5.27
2019-02-18T18:22:09.160Z,5.90
2019-02-18T18:24:40.361Z,5.07
2019-02-18T18:27:11.698Z,5.27
2019-02-18T18:29:42.860Z,5.50
2019-02-18T18:32:14.040Z,5.50
2019-02-18T18:34:45.110Z,6.00
2019-02-18T18:37:16.343Z,6.30
2019-02-18T18:39:47.337Z,5.67
2019-02-18T18:42:19.090Z,5.30
2019-02-18T18:44:50.509Z,6.30
2019-02-18T18:47:21.760Z,6.90
2019-02-18T18:49:52.735Z,6.73
2019-02-18T18:52:24.896Z,6.93
2019-02-18T18:54:55.967Z,6.93
2019-02-18T18:57:27.313Z,6.77
2019-02-18T18:59:58.492Z,6.00
2019-02-18T19:02:29.686Z,7.00
2019-02-18T19:05:00.813Z,6.10
2019-02-18T19:07:33.155Z,6.20
2019-02-18T19:10:04.849Z,6.23
2019-02-18T19:12:36.981Z,6.93
2019-02-18T19:15:08.569Z,6.70
2019-02-18T19:17:39.680Z,7.00
2019-02-18T19:20:11.702Z,8.73
2019-02-18T19:22:43.080Z,6.03
2019-02-18T19:25:19.607Z,5.50
2019-02-18T19:27:51.510Z,7.13
2019-02-18T19:30:24.738Z,6.77
2019-02-18T19:32:56.018Z,5.37
2019-02-18T19:35:27.197Z,6.67
2019-02-18T19:37:58.096Z,9.63
2019-02-18T19:40:29.173Z,7.77
2019-02-18T19:43:00.322Z,13.40
2019-02-18T19:45:31.422Z,10.73
2019-02-18T19:48:02.593Z,9.03
2019-02-18T19:50:35.376Z,7.90
2019-02-18T19:53:06.492Z,6.10
2019-02-18T19:55:37.758Z,6.37
2019-02-18T19:58:08.712Z,6.63
2019-02-18T20:00:39.830Z,7.47
2019-02-18T20:03:11.055Z,7.50
2019-02-18T20:05:42.385Z,8.37
2019-02-18T20:08:14.571Z,6.27
2019-02-18T20:10:45.718Z,7.07
2019-02-18T20:13:17.300Z,6.47
2019-02-18T20:15:48.613Z,7.40
2019-02-18T20:18:19.639Z,7.23
2019-02-18T20:20:50.843Z,7.50
2019-02-18T20:23:22.279Z,7.37
2019-02-18T20:25:53.322Z,6.20
2019-02-18T20:28:24.506Z,6.93
2019-02-18T20:30:55.607Z,7.60
2019-02-18T20:33:27.898Z,6.30
2019-02-18T20:35:59.086Z,6.23
2019-02-18T20:38:30.267Z,5.53
2019-02-18T20:41:01.524Z,6.23
2019-02-18T20:43:32.598Z,6.43
2019-02-18T20:46:04.684Z,7.83
2019-02-18T20:48:44.355Z,7.40
2019-02-18T20:51:15.718Z,8.77
2019-02-18T20:53:46.866Z,7.87
2019-02-18T20:56:18.164Z,7.77
2019-02-18T20:58:49.525Z,7.80
2019-02-18T21:01:20.641Z,7.40
2019-02-18T21:03:52.221Z,6.87
2019-02-18T21:06:23.236Z,8.13
2019-02-18T21:08:54.120Z,7.87
2019-02-18T21:11:25.774Z,8.60
2019-02-18T21:13:56.517Z,7.13
2019-02-18T21:16:27.534Z,8.33
2019-02-18T21:18:58.345Z,8.40
2019-02-18T21:21:29.699Z,8.90
2019-02-18T21:24:00.668Z,7.10
2019-02-18T21:26:31.893Z,7.40
2019-02-18T21:29:03.101Z,7.40
2019-02-18T21:31:34.490Z,7.40
2019-02-18T21:34:05.833Z,7.97
2019-02-18T21:36:37.336Z,7.90
2019-02-18T21:39:12.758Z,7.23
2019-02-18T21:41:43.941Z,7.00
2019-02-18T21:44:15.191Z,7.03
2019-02-18T21:46:47.156Z,6.30
2019-02-18T21:49:18.296Z,6.87
2019-02-18T21:51:49.245Z,8.17
2019-02-18T21:54:20.447Z,11.63
2019-02-18T21:56:52.229Z,7.40
2019-02-18T21:59:23.481Z,9.07
2019-02-18T22:01:55.146Z,7.90
2019-02-18T22:04:26.629Z,7.30
2019-02-18T22:06:57.459Z,7.30
2019-02-18T22:09:28.847Z,6.70
2019-02-18T22:12:12.055Z,7.93
2019-02-18T22:14:44.512Z,6.90
2019-02-18T22:17:16.214Z,10.70
2019-02-18T22:19:47.295Z,6.93
2019-02-18T22:22:18.890Z,9.10
2019-02-18T22:24:50.062Z,8.40
2019-02-18T22:27:21.265Z,9.83
2019-02-18T22:29:52.562Z,9.40
2019-02-18T22:32:23.582Z,9.63
2019-02-18T22:34:54.350Z,8.37
2019-02-18T22:37:25.686Z,9.20
2019-02-18T22:39:57.106Z,10.43
2019-02-18T22:42:28.625Z,8.97
2019-02-18T22:44:59.393Z,9.53
2019-02-18T22:47:46.061Z,9.03
2019-02-18T22:50:17.745Z,9.40
2019-02-18T22:52:50.047Z,11.10
2019-02-18T22:55:21.271Z,10.60
2019-02-18T22:57:52.135Z,10.53
2019-02-18T23:00:52.172Z,9.40
2019-02-18T23:03:23.649Z,9.50
2019-02-18T23:05:54.380Z,9.10
2019-02-18T23:08:29.685Z,9.30
2019-02-18T23:11:01.262Z,10.30
2019-02-18T23:13:32.511Z,9.20
2019-02-18T23:16:07.483Z,9.90
2019-02-18T23:18:39.119Z,12.60
2019-02-18T23:21:10.290Z,10.10
2019-02-18T23:23:41.686Z,12.83
2019-02-18T23:26:12.954Z,12.30
2019-02-18T23:28:44.134Z,10.97
2019-02-18T23:31:15.181Z,10.33
2019-02-18T23:33:46.430Z,10.27
2019-02-18T23:36:17.503Z,9.77
2019-02-18T23:38:50.999Z,10.00
2019-02-18T23:41:22.273Z,9.83
2019-02-18T23:43:53.001Z,9.40
2019-02-18T23:46:24.082Z,10.97
2019-02-18T23:48:55.351Z,10.10
2019-02-18T23:51:26.414Z,9.67
2019-02-18T23:53:58.357Z,8.63
2019-02-18T23:56:38.271Z,8.70
2019-02-18T23:59:10.092Z,9.23
